• Join FlightAware (Why Join?)
  • Login
  • US Flag 
02:53PM EDT


 

Airport Tracker/Info


-or-


 

Live Flight TrackerFlight Track Log ✈ EGF4383 ✈ 25-Apr-2013 ✈ KCHO - KORD

Flight Track Log - Related Links

Times and Time Zones

All times are in EDT time to prevent confusion due to time zone crossing. See the EGF4383 flight status page for this flight to view local times or setup timezone preferences in your user account.

Time Position Orientation Groundspeed Altitude Reporting Facility
EDT Latitude Longitude Course Direction KTS MPH feet Rate Location/Type
05:07PM 38.1000 -78.4833 294° West 192 221 2,800  Level Potomac TRACON
05:08PM 38.0442 -78.5000 193° South 215 247 5,600 2,220 Climbing Washington Center
05:09PM 38.2333 -78.7311 270° West  Level FlightAware Approximate
05:10PM 38.2682 -78.8257 299° West  Level FlightAware Approximate
05:10PM 38.0656 -78.6433 281° West 197 227 9,200  Level Washington Center
05:11PM 38.3074 -78.9178 298° West  Level FlightAware Approximate
05:11PM 38.1033 -78.7161 303° West 234 269 11,600  Level Washington Center
05:12PM 38.3461 -79.0105 298° West  Level FlightAware Approximate
05:12PM 38.1428 -78.8075 299° West 263 303 12,600  Level Washington Center
05:13PM 38.3845 -79.1033 294° West  Level FlightAware Approximate
05:14PM 38.2350 -79.0125 300° West 319 367 16,700  Level Washington Center
05:15PM 38.2761 -79.1042 300° West 319 367 18,400 1,800 Climbing Washington Center
05:16PM 38.3192 -79.2014 299° West 314 361 20,300 1,500 Climbing Washington Center
05:18PM 38.3917 -79.2816 319° Northwest  Level FlightAware Approximate
05:18PM 38.3992 -79.3803 319° Northwest 314 361 23,000  Level Washington Center
05:19PM 38.4436 -79.4886 298° West 319 367 23,300 1,080 Climbing Washington Center
05:20PM 38.4903 -79.5944 299° West 334 384 25,200 1,920 Climbing Washington Center
05:21PM 38.5386 -79.7058 299° West 336 387 27,200 1,680 Climbing Washington Center
05:22PM 38.5811 -79.8014 300° West 331 381 28,600 1,440 Climbing Washington Center
05:23PM 38.6217 -79.8967 299° West 320 368 30,100 1,380 Climbing Washington Center
05:24PM 38.6600 -79.9867 299° West 315 362 31,500 1,080 Climbing Washington Center
05:26PM 38.7458 -80.1861 299° West 327 376 33,600 1,020 Climbing Indianapolis Center
05:28PM 38.8011 -80.3119 299° West 337 388 34,800 1,020 Climbing Indianapolis Center
05:29PM 38.8458 -80.4192 298° West 341 392 35,800 540 Climbing Indianapolis Center
05:30PM 38.8922 -80.5264 299° West 344 396 36,000 60 Climbing Indianapolis Center
05:31PM 38.9386 -80.6364 298° West 349 402 36,000  Level Indianapolis Center
05:32PM 38.9831 -80.7444 298° West 342 394 36,000  Level Indianapolis Center
05:33PM 39.0308 -80.8536 299° West 351 404 36,000  Level Indianapolis Center
05:34PM 39.0864 -80.9889 298° West 358 412 36,000  Level Indianapolis Center
05:35PM 39.1328 -81.0994 298° West 354 407 36,000  Level Indianapolis Center
05:36PM 39.1789 -81.2128 298° West 358 412 36,000  Level Indianapolis Center
05:37PM 39.2250 -81.3236 298° West 354 407 36,000  Level Indianapolis Center
05:38PM 39.2711 -81.4372 298° West 359 413 36,000  Level Indianapolis Center
05:39PM 39.3344 -81.5725 301° West 369 425 36,000  Level Indianapolis Center
05:40PM 39.3886 -81.6839 302° West 368 423 36,000  Level Indianapolis Center
05:41PM 39.4411 -81.7925 302° West 359 413 36,000  Level Indianapolis Center
05:42PM 39.4944 -81.9061 301° West 367 422 36,000  Level Indianapolis Center
05:43PM 39.5483 -82.0200 302° West 370 426 36,000  Level Indianapolis Center
05:44PM 39.6075 -82.1439 302° West 368 423 36,000  Level Indianapolis Center
05:45PM 39.6617 -82.2572 302° West 369 425 36,000  Level Indianapolis Center
05:46PM 39.7153 -82.3719 301° West 369 425 36,000  Level Indianapolis Center
05:47PM 39.7692 -82.4872 301° West 371 427 36,000  Level Indianapolis Center
05:48PM 39.8233 -82.6028 301° West 371 427 36,000  Level Indianapolis Center
05:49PM 39.8842 -82.7339 301° West 362 417 36,000 -60 Level Indianapolis Center
05:50PM 39.9367 -82.8447 302° West 358 412 35,900  Descending Indianapolis Center
05:51PM 39.9883 -82.9592 301° West 365 420 36,000  Climbing Indianapolis Center
05:52PM 40.0408 -83.0744 301° West 368 423 36,000  Level Indianapolis Center
05:53PM 40.0939 -83.1892 301° West 370 426 36,000  Level Indianapolis Center
05:54PM 40.1558 -83.3250 301° West 373 429 36,000  Level Indianapolis Center
05:55PM 40.2089 -83.4406 301° West 372 428 36,000  Level Indianapolis Center
05:56PM 40.2603 -83.5556 300° West 366 421 36,000  Level Indianapolis Center
05:58PM 40.3119 -83.6697 301° West 363 418 36,000  Level Indianapolis Center
05:59PM 40.3631 -83.7822 301° West 359 413 36,000  Level Indianapolis Center
06:00PM 40.4136 -83.8953 300° West 357 411 36,000  Level Indianapolis Center
06:01PM 40.4731 -84.0278 301° West 359 413 36,000 -120 Level Indianapolis Center
06:02PM 40.5253 -84.1425 301° West 361 415 35,800 -600 Descending Indianapolis Center
06:03PM 40.5753 -84.2603 299° West 365 420 34,800 -900 Descending Indianapolis Center
06:04PM 40.6275 -84.3728 301° West 361 415 34,000 -420 Descending Indianapolis Center
06:05PM 40.6769 -84.4869 300° West 357 411 34,000  Level Indianapolis Center
06:06PM 40.7275 -84.6039 300° West 361 415 34,000  Level Indianapolis Center
06:07PM 40.7775 -84.7203 300° West 364 419 34,000  Level Indianapolis Center
06:08PM 40.8344 -84.8583 299° West 365 420 34,000  Level Indianapolis Center
06:09PM 40.8808 -84.9761 298° West 366 421 34,000  Level Indianapolis Center
06:10PM 40.9261 -85.0961 297° West 363 418 34,000  Level Indianapolis Center
06:11PM 40.9725 -85.2114 298° West 355 409 34,000  Level Indianapolis Center
06:12PM 41.0158 -85.3281 296° West 353 406 34,000 -300 Level Indianapolis Center
06:13PM 41.0675 -85.4617 297° West 348 400 33,400 -1,380 Descending Indianapolis Center
06:14PM 41.1119 -85.5825 296° West 361 415 31,200 -2,280 Descending Indianapolis Center
06:15PM 41.1567 -85.6967 298° West 351 404 28,700 -2,280 Descending Indianapolis Center
06:16PM 41.2006 -85.8142 296° West 354 407 26,600 -1,800 Descending Indianapolis Center
06:17PM 41.2458 -85.9403 296° West 372 428 25,000 -1,260 Descending Indianapolis Center
06:18PM 41.2897 -86.0678 295° West 377 434 24,100 -1,920 Descending Indianapolis Center
06:19PM 41.3397 -86.2131 295° West 371 427 21,100 -2,640 Descending Indianapolis Center
06:20PM 41.3825 -86.3350 295° West 366 421 18,700 -1,980 Descending Indianapolis Center
06:21PM 41.4253 -86.4611 294° West 358 412 16,800 -1,800 Descending Chicago Center
06:22PM 41.4653 -86.5786 294° West 350 403 14,800 -2,160 Descending Chicago Center
06:24PM 41.5125 -86.7147 295° West 338 389 12,400 -1,380 Descending Chicago Center
06:25PM 41.5731 -86.7856 319° Northwest 330 380 12,000 -240 Descending Chicago Center
06:26PM 41.6658 -86.7986 354° North 335 386 12,000  Level Chicago Center
06:27PM 41.7753 -86.8097 356° North 331 381 12,000  Level Chicago Center
06:28PM 41.8653 -86.8311 350° North 330 380 12,000 -480 Level Chicago Center
06:29PM 41.9031 -86.9347 296° West 322 371 11,100 -900 Descending Chicago Center
06:30PM 41.9264 -87.0475 286° West 316 364 10,200 -540 Descending Chicago Center
06:31PM 41.9511 -87.1578 287° West 312 359 10,000 -900 Descending Chicago Center
06:32PM 41.9722 -87.2678 285° West 251 289 8,400 -1,440 Descending Chicago Center
06:33PM 41.9858 -87.3597 281° West 251 289 7,000 -720 Descending Chicago Center
06:34PM 41.9839 -87.4511 268° West 249 287 7,000 -540 Level Chicago Center
06:35PM 41.9831 -87.5425 269° West 247 284 6,000 -1,140 Descending Chicago Center
06:36PM 41.9844 -87.6283 271° West 241 277 4,700 -1,260 Descending Chicago Center